Terminal Aerodrome Forecast
Issued by NWS

Home | Current Version | Previous Version | Text Only | Print | Product List | Glossary On
Versions: 1 2 3 4 5 6 7 8 9 10 11 12 13 14
000
FTUS43 KEAX 272325
TAFMKC
TAF
KMKC 272325Z 2800/2824 17006KT P6SM FEW150 SCT250
     FM280300 12005KT P6SM VCSH BKN090
     FM280900 19009KT 5SM -SHRA VCTS SCT050CB BKN070
     FM281600 20014G20KT P6SM FEW050 BKN100
     FM282100 22011G17KT P6SM VCTS BKN040CB=

USA.gov is the U.S. government's official web portal to all federal, state and local government web resources and services.